sensor_id;sensor_type;location;lat;lon;timestamp;pressure;altitude;pressure_sealevel;temperature;humidity
64019;BME280;66942;52.138;5.216;2023-03-22T00:02:59;100934.0;;;15.12;56.16
64019;BME280;66942;52.138;5.216;2023-03-22T00:04:35;100931.0;;;15.15;56.09
64019;BME280;66942;52.138;5.216;2023-03-22T00:06:11;100930.0;;;14.99;56.4
64019;BME280;66942;52.138;5.216;2023-03-22T00:09:24;100922.0;;;15.31;55.55
64019;BME280;66942;52.138;5.216;2023-03-22T00:11:01;100919.0;;;15.13;55.9
64019;BME280;66942;52.138;5.216;2023-03-22T00:12:37;100913.0;;;15.1;55.98
64019;BME280;66942;52.138;5.216;2023-03-22T00:15:50;100914.0;;;15.14;56.03
64019;BME280;66942;52.138;5.216;2023-03-22T00:17:26;100908.0;;;15.12;55.89
64019;BME280;66942;52.138;5.216;2023-03-22T00:19:02;100908.0;;;15.0;56.2
64019;BME280;66942;52.138;5.216;2023-03-22T00:20:46;100905.0;;;15.07;56.16
64019;BME280;66942;52.138;5.216;2023-03-22T00:23:59;100901.0;;;14.99;56.33
64019;BME280;66942;52.138;5.216;2023-03-22T00:25:35;100897.0;;;15.09;56.09
64019;BME280;66942;52.138;5.216;2023-03-22T00:27:12;100901.0;;;14.92;56.48
64019;BME280;66942;52.138;5.216;2023-03-22T00:30:24;100901.0;;;15.06;56.1
64019;BME280;66942;52.138;5.216;2023-03-22T00:32:00;100901.0;;;15.09;56.05
64019;BME280;66942;52.138;5.216;2023-03-22T00:33:37;100905.0;;;15.04;56.19
64019;BME280;66942;52.138;5.216;2023-03-22T00:35:13;100900.0;;;15.04;56.13
64019;BME280;66942;52.138;5.216;2023-03-22T00:38:26;100896.0;;;15.04;56.04
64019;BME280;66942;52.138;5.216;2023-03-22T00:40:04;100890.0;;;14.96;56.08
64019;BME280;66942;52.138;5.216;2023-03-22T00:41:41;100893.0;;;14.96;56.29
64019;BME280;66942;52.138;5.216;2023-03-22T00:44:53;100890.0;;;14.97;56.1
64019;BME280;66942;52.138;5.216;2023-03-22T00:46:29;100886.0;;;14.98;56.05
64019;BME280;66942;52.138;5.216;2023-03-22T00:48:06;100883.0;;;14.84;56.32
64019;BME280;66942;52.138;5.216;2023-03-22T00:51:19;100880.0;;;14.95;56.13
64019;BME280;66942;52.138;5.216;2023-03-22T00:52:55;100875.0;;;14.64;56.74
64019;BME280;66942;52.138;5.216;2023-03-22T00:54:31;100871.0;;;14.82;56.34
64019;BME280;66942;52.138;5.216;2023-03-22T00:57:44;100868.0;;;14.73;56.29
64019;BME280;66942;52.138;5.216;2023-03-22T00:59:21;100869.0;;;14.83;56.23
64019;BME280;66942;52.138;5.216;2023-03-22T01:00:57;100863.0;;;14.95;56.0
64019;BME280;66942;52.138;5.216;2023-03-22T01:02:33;100864.0;;;14.71;56.64
64019;BME280;66942;52.138;5.216;2023-03-22T01:05:47;100852.0;;;14.9;56.15
64019;BME280;66942;52.138;5.216;2023-03-22T01:07:23;100849.0;;;14.8;56.44
64019;BME280;66942;52.138;5.216;2023-03-22T01:08:59;100846.0;;;14.62;56.49
64019;BME280;66942;52.138;5.216;2023-03-22T01:12:16;100840.0;;;14.74;56.41
64019;BME280;66942;52.138;5.216;2023-03-22T01:13:55;100837.0;;;14.6;56.79
64019;BME280;66942;52.138;5.216;2023-03-22T01:15:31;100837.0;;;14.59;56.83
64019;BME280;66942;52.138;5.216;2023-03-22T01:17:09;100834.0;;;14.52;56.98
64019;BME280;66942;52.138;5.216;2023-03-22T01:20:21;100830.0;;;14.49;56.82
64019;BME280;66942;52.138;5.216;2023-03-22T01:21:58;100820.0;;;14.64;56.67
64019;BME280;66942;52.138;5.216;2023-03-22T01:23:36;100820.0;;;14.49;56.8
64019;BME280;66942;52.138;5.216;2023-03-22T01:26:50;100820.0;;;14.52;56.82
64019;BME280;66942;52.138;5.216;2023-03-22T01:28:26;100820.0;;;14.4;57.03
64019;BME280;66942;52.138;5.216;2023-03-22T01:30:02;100811.0;;;14.51;56.84
64019;BME280;66942;52.138;5.216;2023-03-22T01:33:16;100810.0;;;14.41;56.79
64019;BME280;66942;52.138;5.216;2023-03-22T01:34:52;100812.0;;;14.53;56.69
64019;BME280;66942;52.138;5.216;2023-03-22T01:36:28;100802.0;;;14.55;56.64
64019;BME280;66942;52.138;5.216;2023-03-22T01:38:06;100799.0;;;14.65;56.33
64019;BME280;66942;52.138;5.216;2023-03-22T01:41:18;100799.0;;;14.58;56.43
64019;BME280;66942;52.138;5.216;2023-03-22T01:42:55;100786.0;;;14.47;56.69
64019;BME280;66942;52.138;5.216;2023-03-22T01:44:31;100790.0;;;14.6;56.37
64019;BME280;66942;52.138;5.216;2023-03-22T01:47:46;100776.0;;;14.46;56.74
64019;BME280;66942;52.138;5.216;2023-03-22T01:49:30;100775.0;;;14.69;56.33
64019;BME280;66942;52.138;5.216;2023-03-22T01:51:09;100774.0;;;14.52;56.54
64019;BME280;66942;52.138;5.216;2023-03-22T01:52:47;100768.0;;;14.51;56.37
64019;BME280;66942;52.138;5.216;2023-03-22T01:56:09;100767.0;;;14.47;56.67
64019;BME280;66942;52.138;5.216;2023-03-22T01:57:47;100765.0;;;14.72;56.0
64019;BME280;66942;52.138;5.216;2023-03-22T01:59:25;100763.0;;;14.69;56.11
64019;BME280;66942;52.138;5.216;2023-03-22T02:01:04;100760.0;;;14.66;56.14
64019;BME280;66942;52.138;5.216;2023-03-22T02:04:20;100758.0;;;14.76;56.02
64019;BME280;66942;52.138;5.216;2023-03-22T02:05:58;100755.0;;;14.65;56.29
64019;BME280;66942;52.138;5.216;2023-03-22T02:07:35;100747.0;;;14.51;56.79
64019;BME280;66942;52.138;5.216;2023-03-22T02:10:50;100743.0;;;14.59;56.46
64019;BME280;66942;52.138;5.216;2023-03-22T02:12:31;100737.0;;;14.7;56.39
64019;BME280;66942;52.138;5.216;2023-03-22T02:14:27;100733.0;;;14.57;56.61
64019;BME280;66942;52.138;5.216;2023-03-22T02:16:28;100728.0;;;14.64;56.46
64019;BME280;66942;52.138;5.216;2023-03-22T02:18:24;100728.0;;;14.69;56.46
64019;BME280;66942;52.138;5.216;2023-03-22T02:22:10;100725.0;;;14.65;56.67
64019;BME280;66942;52.138;5.216;2023-03-22T02:25:31;100724.0;;;14.6;56.81
64019;BME280;66942;52.138;5.216;2023-03-22T02:27:51;100711.0;;;14.47;57.21
64019;BME280;66942;52.138;5.216;2023-03-22T02:31:57;100705.0;;;14.69;56.69
64019;BME280;66942;52.138;5.216;2023-03-22T02:37:42;100698.0;;;14.4;57.75
64019;BME280;66942;52.138;5.216;2023-03-22T02:41:00;100696.0;;;14.52;57.74
64019;BME280;66942;52.138;5.216;2023-03-22T02:44:40;100688.0;;;14.39;58.26
64019;BME280;66942;52.138;5.216;2023-03-22T02:46:21;100691.0;;;14.55;57.95
64019;BME280;66942;52.138;5.216;2023-03-22T02:48:05;100698.0;;;14.62;58.04
64019;BME280;66942;52.138;5.216;2023-03-22T02:49:48;100695.0;;;14.54;58.46
64019;BME280;66942;52.138;5.216;2023-03-22T02:51:31;100685.0;;;14.57;58.39
64019;BME280;66942;52.138;5.216;2023-03-22T02:54:56;100686.0;;;14.57;58.62
64019;BME280;66942;52.138;5.216;2023-03-22T02:56:39;100682.0;;;14.75;58.31
64019;BME280;66942;52.138;5.216;2023-03-22T02:58:22;100680.0;;;14.84;58.22
64019;BME280;66942;52.138;5.216;2023-03-22T03:00:02;100680.0;;;14.68;58.63
64019;BME280;66942;52.138;5.216;2023-03-22T03:01:43;100675.0;;;14.71;58.82
64019;BME280;66942;52.138;5.216;2023-03-22T03:05:03;100666.0;;;14.76;58.71
64019;BME280;66942;52.138;5.216;2023-03-22T03:06:42;100672.0;;;14.86;58.72
64019;BME280;66942;52.138;5.216;2023-03-22T03:08:21;100674.0;;;14.82;58.78
64019;BME280;66942;52.138;5.216;2023-03-22T03:11:34;100669.0;;;14.75;59.23
64019;BME280;66942;52.138;5.216;2023-03-22T03:13:11;100676.0;;;14.61;59.84
64019;BME280;66942;52.138;5.216;2023-03-22T03:14:49;100676.0;;;14.78;59.24
64019;BME280;66942;52.138;5.216;2023-03-22T03:16:28;100676.0;;;14.03;61.82
64019;BME280;66942;52.138;5.216;2023-03-22T03:20:04;100677.0;;;14.75;59.74
64019;BME280;66942;52.138;5.216;2023-03-22T03:21:56;100678.0;;;14.69;59.99
64019;BME280;66942;52.138;5.216;2023-03-22T03:23:43;100678.0;;;14.68;59.94
64019;BME280;66942;52.138;5.216;2023-03-22T03:25:26;100677.0;;;14.84;59.72
64019;BME280;66942;52.138;5.216;2023-03-22T03:27:12;100673.0;;;14.24;61.51
64019;BME280;66942;52.138;5.216;2023-03-22T03:30:39;100670.0;;;14.79;60.07
64019;BME280;66942;52.138;5.216;2023-03-22T03:32:22;100669.0;;;14.89;59.78
64019;BME280;66942;52.138;5.216;2023-03-22T03:34:08;100666.0;;;14.34;61.24
64019;BME280;66942;52.138;5.216;2023-03-22T03:35:51;100671.0;;;14.69;60.47
64019;BME280;66942;52.138;5.216;2023-03-22T03:37:33;100670.0;;;14.82;60.41
64019;BME280;66942;52.138;5.216;2023-03-22T03:40:53;100670.0;;;14.79;60.56
64019;BME280;66942;52.138;5.216;2023-03-22T03:42:32;100666.0;;;14.98;60.02
64019;BME280;66942;52.138;5.216;2023-03-22T03:44:12;100672.0;;;15.05;59.73
64019;BME280;66942;52.138;5.216;2023-03-22T03:45:50;100662.0;;;15.01;60.01
64019;BME280;66942;52.138;5.216;2023-03-22T03:49:05;100664.0;;;15.03;60.06
64019;BME280;66942;52.138;5.216;2023-03-22T03:50:43;100659.0;;;14.88;60.72
64019;BME280;66942;52.138;5.216;2023-03-22T03:52:20;100662.0;;;14.79;60.97
64019;BME280;66942;52.138;5.216;2023-03-22T03:55:32;100664.0;;;15.14;59.89
64019;BME280;66942;52.138;5.216;2023-03-22T03:57:08;100660.0;;;15.06;60.23
64019;BME280;66942;52.138;5.216;2023-03-22T03:58:44;100663.0;;;14.9;60.61
64019;BME280;66942;52.138;5.216;2023-03-22T04:00:20;100660.0;;;15.11;60.09
64019;BME280;66942;52.138;5.216;2023-03-22T04:03:34;100662.0;;;15.11;60.11
64019;BME280;66942;52.138;5.216;2023-03-22T04:05:11;100657.0;;;14.81;60.71
64019;BME280;66942;52.138;5.216;2023-03-22T04:06:48;100663.0;;;15.02;60.4
64019;BME280;66942;52.138;5.216;2023-03-22T04:10:00;100659.0;;;15.15;59.99
64019;BME280;66942;52.138;5.216;2023-03-22T04:11:36;100661.0;;;15.17;60.03
64019;BME280;66942;52.138;5.216;2023-03-22T04:13:12;100662.0;;;15.1;60.39
64019;BME280;66942;52.138;5.216;2023-03-22T04:16:24;100656.0;;;15.18;60.0
64019;BME280;66942;52.138;5.216;2023-03-22T04:18:01;100650.0;;;15.32;59.56
64019;BME280;66942;52.138;5.216;2023-03-22T04:19:37;100655.0;;;15.21;59.92
64019;BME280;66942;52.138;5.216;2023-03-22T04:21:13;100650.0;;;15.26;59.8
64019;BME280;66942;52.138;5.216;2023-03-22T04:24:25;100648.0;;;15.35;59.49
64019;BME280;66942;52.138;5.216;2023-03-22T04:26:02;100650.0;;;15.37;59.5
64019;BME280;66942;52.138;5.216;2023-03-22T04:27:40;100642.0;;;15.45;59.21
64019;BME280;66942;52.138;5.216;2023-03-22T04:30:54;100637.0;;;15.41;59.26
64019;BME280;66942;52.138;5.216;2023-03-22T04:32:31;100626.0;;;15.24;59.6
64019;BME280;66942;52.138;5.216;2023-03-22T04:34:07;100626.0;;;15.3;59.4
64019;BME280;66942;52.138;5.216;2023-03-22T04:37:20;100627.0;;;15.4;59.19
64019;BME280;66942;52.138;5.216;2023-03-22T04:38:56;100634.0;;;15.3;59.47
64019;BME280;66942;52.138;5.216;2023-03-22T04:40:32;100630.0;;;15.16;59.71
64019;BME280;66942;52.138;5.216;2023-03-22T04:42:09;100635.0;;;14.96;60.22
64019;BME280;66942;52.138;5.216;2023-03-22T04:45:22;100628.0;;;15.08;60.05
64019;BME280;66942;52.138;5.216;2023-03-22T04:46:59;100633.0;;;15.05;60.26
64019;BME280;66942;52.138;5.216;2023-03-22T04:48:35;100624.0;;;15.23;59.64
64019;BME280;66942;52.138;5.216;2023-03-22T04:51:48;100626.0;;;15.43;59.01
64019;BME280;66942;52.138;5.216;2023-03-22T04:53:25;100630.0;;;15.45;58.95
64019;BME280;66942;52.138;5.216;2023-03-22T04:55:01;100623.0;;;15.32;59.12
64019;BME280;66942;52.138;5.216;2023-03-22T04:58:13;100617.0;;;15.16;59.67
64019;BME280;66942;52.138;5.216;2023-03-22T04:59:49;100616.0;;;15.34;59.07
64019;BME280;66942;52.138;5.216;2023-03-22T05:01:25;100614.0;;;15.31;59.17
64019;BME280;66942;52.138;5.216;2023-03-22T05:03:02;100616.0;;;15.26;59.24
64019;BME280;66942;52.138;5.216;2023-03-22T05:06:14;100611.0;;;15.31;59.08
64019;BME280;66942;52.138;5.216;2023-03-22T05:07:51;100606.0;;;15.19;59.39
64019;BME280;66942;52.138;5.216;2023-03-22T05:09:27;100609.0;;;15.28;59.17
64019;BME280;66942;52.138;5.216;2023-03-22T05:12:42;100608.0;;;15.16;59.2
64019;BME280;66942;52.138;5.216;2023-03-22T05:14:18;100608.0;;;15.23;59.12
64019;BME280;66942;52.138;5.216;2023-03-22T05:15:54;100606.0;;;15.13;59.43
64019;BME280;66942;52.138;5.216;2023-03-22T05:19:07;100607.0;;;15.18;59.17
64019;BME280;66942;52.138;5.216;2023-03-22T05:20:43;100606.0;;;15.3;58.82
64019;BME280;66942;52.138;5.216;2023-03-22T05:22:19;100612.0;;;14.84;59.99
64019;BME280;66942;52.138;5.216;2023-03-22T05:25:32;100611.0;;;14.88;60.09
64019;BME280;66942;52.138;5.216;2023-03-22T05:27:08;100609.0;;;14.55;60.74
64019;BME280;66942;52.138;5.216;2023-03-22T05:28:44;100607.0;;;14.99;59.76
64019;BME280;66942;52.138;5.216;2023-03-22T05:30:20;100600.0;;;14.84;60.11
64019;BME280;66942;52.138;5.216;2023-03-22T05:33:33;100608.0;;;14.83;60.08
64019;BME280;66942;52.138;5.216;2023-03-22T05:35:09;100605.0;;;14.92;59.87
64019;BME280;66942;52.138;5.216;2023-03-22T05:36:46;100600.0;;;15.06;59.46
64019;BME280;66942;52.138;5.216;2023-03-22T05:39:59;100596.0;;;14.95;59.7
64019;BME280;66942;52.138;5.216;2023-03-22T05:41:34;100596.0;;;15.05;59.43
64019;BME280;66942;52.138;5.216;2023-03-22T05:43:11;100600.0;;;14.9;59.73
64019;BME280;66942;52.138;5.216;2023-03-22T05:46:23;100598.0;;;14.9;59.87
64019;BME280;66942;52.138;5.216;2023-03-22T05:47:59;100593.0;;;14.92;59.74
64019;BME280;66942;52.138;5.216;2023-03-22T05:49:35;100591.0;;;14.93;59.73
64019;BME280;66942;52.138;5.216;2023-03-22T05:51:13;100585.0;;;14.82;59.97
64019;BME280;66942;52.138;5.216;2023-03-22T05:54:25;100580.0;;;14.98;59.72
64019;BME280;66942;52.138;5.216;2023-03-22T05:56:01;100580.0;;;14.73;60.22
64019;BME280;66942;52.138;5.216;2023-03-22T05:57:38;100577.0;;;15.1;59.23
64019;BME280;66942;52.138;5.216;2023-03-22T06:00:51;100581.0;;;14.91;59.75
64019;BME280;66942;52.138;5.216;2023-03-22T06:02:27;100583.0;;;15.07;59.28
64019;BME280;66942;52.138;5.216;2023-03-22T06:04:03;100583.0;;;14.81;59.77
64019;BME280;66942;52.138;5.216;2023-03-22T06:07:16;100578.0;;;15.06;59.0
64019;BME280;66942;52.138;5.216;2023-03-22T06:08:52;100574.0;;;14.96;59.06
64019;BME280;66942;52.138;5.216;2023-03-22T06:10:28;100584.0;;;15.05;59.02
64019;BME280;66942;52.138;5.216;2023-03-22T06:12:04;100584.0;;;15.01;59.07
64019;BME280;66942;52.138;5.216;2023-03-22T06:15:18;100586.0;;;14.75;59.38
64019;BME280;66942;52.138;5.216;2023-03-22T06:16:54;100587.0;;;14.76;59.32
64019;BME280;66942;52.138;5.216;2023-03-22T06:18:31;100584.0;;;14.99;59.13
64019;BME280;66942;52.138;5.216;2023-03-22T06:21:46;100585.0;;;14.8;59.74
64019;BME280;66942;52.138;5.216;2023-03-22T06:23:22;100582.0;;;14.8;59.81
64019;BME280;66942;52.138;5.216;2023-03-22T06:24:59;100582.0;;;15.14;58.94
64019;BME280;66942;52.138;5.216;2023-03-22T06:28:12;100583.0;;;14.98;58.92
64019;BME280;66942;52.138;5.216;2023-03-22T06:29:48;100584.0;;;14.99;58.87
64019;BME280;66942;52.138;5.216;2023-03-22T06:31:23;100576.0;;;15.06;58.66
64019;BME280;66942;52.138;5.216;2023-03-22T06:33:00;100584.0;;;15.27;58.22
64019;BME280;66942;52.138;5.216;2023-03-22T06:36:13;100586.0;;;15.15;58.59
64019;BME280;66942;52.138;5.216;2023-03-22T06:37:49;100588.0;;;14.97;58.7
64019;BME280;66942;52.138;5.216;2023-03-22T06:39:25;100581.0;;;15.44;57.74
64019;BME280;66942;52.138;5.216;2023-03-22T06:42:37;100585.0;;;15.04;58.46
64019;BME280;66942;52.138;5.216;2023-03-22T06:44:14;100583.0;;;15.48;57.5
64019;BME280;66942;52.138;5.216;2023-03-22T06:45:50;100580.0;;;15.24;57.88
64019;BME280;66942;52.138;5.216;2023-03-22T06:49:03;100583.0;;;15.58;57.19
64019;BME280;66942;52.138;5.216;2023-03-22T06:50:40;100584.0;;;15.52;57.07
64019;BME280;66942;52.138;5.216;2023-03-22T06:52:16;100587.0;;;15.52;57.14
64019;BME280;66942;52.138;5.216;2023-03-22T06:55:28;100587.0;;;15.41;57.09
64019;BME280;66942;52.138;5.216;2023-03-22T06:57:04;100586.0;;;15.67;57.03
64019;BME280;66942;52.138;5.216;2023-03-22T06:58:40;100586.0;;;15.82;56.39
64019;BME280;66942;52.138;5.216;2023-03-22T07:00:17;100582.0;;;15.72;56.23
64019;BME280;66942;52.138;5.216;2023-03-22T07:03:30;100583.0;;;15.77;56.59
64019;BME280;66942;52.138;5.216;2023-03-22T07:05:07;100585.0;;;15.95;55.75
64019;BME280;66942;52.138;5.216;2023-03-22T07:06:43;100583.0;;;15.92;55.8
64019;BME280;66942;52.138;5.216;2023-03-22T07:09:56;100586.0;;;15.81;55.71
64019;BME280;66942;52.138;5.216;2023-03-22T07:11:32;100578.0;;;15.46;56.46
64019;BME280;66942;52.138;5.216;2023-03-22T07:13:08;100585.0;;;15.56;56.31
64019;BME280;66942;52.138;5.216;2023-03-22T07:16:20;100580.0;;;15.74;56.15
64019;BME280;66942;52.138;5.216;2023-03-22T07:17:56;100583.0;;;15.44;56.51
64019;BME280;66942;52.138;5.216;2023-03-22T07:19:33;100587.0;;;15.8;55.54
64019;BME280;66942;52.138;5.216;2023-03-22T07:21:09;100582.0;;;15.37;56.42
64019;BME280;66942;52.138;5.216;2023-03-22T07:24:20;100580.0;;;15.58;56.16
64019;BME280;66942;52.138;5.216;2023-03-22T07:25:56;100578.0;;;15.73;55.84
64019;BME280;66942;52.138;5.216;2023-03-22T07:27:32;100583.0;;;15.89;55.5
64019;BME280;66942;52.138;5.216;2023-03-22T07:30:45;100580.0;;;15.87;55.76
64019;BME280;66942;52.138;5.216;2023-03-22T07:32:21;100578.0;;;15.78;55.65
64019;BME280;66942;52.138;5.216;2023-03-22T07:33:57;100580.0;;;15.94;55.22
64019;BME280;66942;52.138;5.216;2023-03-22T07:37:10;100578.0;;;15.98;55.01
64019;BME280;66942;52.138;5.216;2023-03-22T07:38:46;100581.0;;;15.82;55.31
64019;BME280;66942;52.138;5.216;2023-03-22T07:40:23;100584.0;;;15.87;55.93
64019;BME280;66942;52.138;5.216;2023-03-22T07:42:00;100580.0;;;15.8;55.46
64019;BME280;66942;52.138;5.216;2023-03-22T07:45:12;100575.0;;;15.97;55.16
64019;BME280;66942;52.138;5.216;2023-03-22T07:46:48;100573.0;;;16.09;55.58
64019;BME280;66942;52.138;5.216;2023-03-22T07:48:24;100574.0;;;16.09;55.02
64019;BME280;66942;52.138;5.216;2023-03-22T07:51:37;100572.0;;;16.36;54.71
64019;BME280;66942;52.138;5.216;2023-03-22T07:53:14;100571.0;;;16.4;54.57
64019;BME280;66942;52.138;5.216;2023-03-22T07:54:50;100569.0;;;16.52;53.72
64019;BME280;66942;52.138;5.216;2023-03-22T07:58:02;100570.0;;;16.43;53.24
64019;BME280;66942;52.138;5.216;2023-03-22T07:59:39;100576.0;;;16.27;53.87
64019;BME280;66942;52.138;5.216;2023-03-22T08:01:15;100571.0;;;16.11;54.31
64019;BME280;66942;52.138;5.216;2023-03-22T08:04:27;100569.0;;;16.13;53.93
64019;BME280;66942;52.138;5.216;2023-03-22T08:06:05;100570.0;;;16.4;54.02
64019;BME280;66942;52.138;5.216;2023-03-22T08:07:43;100573.0;;;16.11;53.96
64019;BME280;66942;52.138;5.216;2023-03-22T08:09:19;100571.0;;;16.25;53.81
64019;BME280;66942;52.138;5.216;2023-03-22T08:12:31;100570.0;;;16.41;53.73
64019;BME280;66942;52.138;5.216;2023-03-22T08:14:07;100573.0;;;16.34;53.85
64019;BME280;66942;52.138;5.216;2023-03-22T08:15:44;100569.0;;;16.57;53.32
64019;BME280;66942;52.138;5.216;2023-03-22T08:18:57;100562.0;;;16.47;53.44
64019;BME280;66942;52.138;5.216;2023-03-22T08:20:33;100578.0;;;16.34;53.55
64019;BME280;66942;52.138;5.216;2023-03-22T08:22:09;100580.0;;;16.18;53.64
64019;BME280;66942;52.138;5.216;2023-03-22T08:25:21;100575.0;;;16.38;53.58
64019;BME280;66942;52.138;5.216;2023-03-22T08:26:57;100569.0;;;16.61;52.95
64019;BME280;66942;52.138;5.216;2023-03-22T08:28:33;100561.0;;;16.72;53.44
64019;BME280;66942;52.138;5.216;2023-03-22T08:30:10;100568.0;;;16.37;53.13
64019;BME280;66942;52.138;5.216;2023-03-22T08:33:23;100562.0;;;16.45;52.94
64019;BME280;66942;52.138;5.216;2023-03-22T08:34:59;100576.0;;;16.38;53.37
64019;BME280;66942;52.138;5.216;2023-03-22T08:36:36;100570.0;;;16.3;53.87
64019;BME280;66942;52.138;5.216;2023-03-22T08:39:48;100569.0;;;16.11;53.81
64019;BME280;66942;52.138;5.216;2023-03-22T08:41:26;100564.0;;;16.27;53.54
64019;BME280;66942;52.138;5.216;2023-03-22T08:43:02;100566.0;;;16.68;52.65
64019;BME280;66942;52.138;5.216;2023-03-22T08:46:15;100566.0;;;16.71;52.49
64019;BME280;66942;52.138;5.216;2023-03-22T08:47:51;100575.0;;;16.78;52.59
64019;BME280;66942;52.138;5.216;2023-03-22T08:49:27;100561.0;;;16.46;52.98
64019;BME280;66942;52.138;5.216;2023-03-22T08:51:04;100559.0;;;16.62;52.75
64019;BME280;66942;52.138;5.216;2023-03-22T08:54:17;100572.0;;;16.73;52.75
64019;BME280;66942;52.138;5.216;2023-03-22T08:55:53;100571.0;;;16.59;52.19
64019;BME280;66942;52.138;5.216;2023-03-22T08:57:29;100563.0;;;16.75;52.26
64019;BME280;66942;52.138;5.216;2023-03-22T09:00:43;100569.0;;;16.55;52.66
64019;BME280;66942;52.138;5.216;2023-03-22T09:02:19;100569.0;;;16.27;52.94
64019;BME280;66942;52.138;5.216;2023-03-22T09:03:55;100563.0;;;16.36;52.96
64019;BME280;66942;52.138;5.216;2023-03-22T09:07:08;100584.0;;;16.14;54.05
64019;BME280;66942;52.138;5.216;2023-03-22T09:08:44;100573.0;;;16.2;53.53
64019;BME280;66942;52.138;5.216;2023-03-22T09:10:20;100578.0;;;16.27;53.69
64019;BME280;66942;52.138;5.216;2023-03-22T09:13:32;100568.0;;;16.39;53.93
64019;BME280;66942;52.138;5.216;2023-03-22T09:15:09;100587.0;;;16.09;55.36
64019;BME280;66942;52.138;5.216;2023-03-22T09:16:46;100580.0;;;15.99;55.78
64019;BME280;66942;52.138;5.216;2023-03-22T09:18:23;100577.0;;;16.0;55.91
64019;BME280;66942;52.138;5.216;2023-03-22T09:21:36;100584.0;;;15.83;56.44
64019;BME280;66942;52.138;5.216;2023-03-22T09:23:13;100585.0;;;15.73;57.19
64019;BME280;66942;52.138;5.216;2023-03-22T09:24:49;100574.0;;;15.59;57.57
64019;BME280;66942;52.138;5.216;2023-03-22T09:28:03;100580.0;;;15.67;57.66
64019;BME280;66942;52.138;5.216;2023-03-22T09:29:39;100580.0;;;15.66;58.12
64019;BME280;66942;52.138;5.216;2023-03-22T09:31:16;100580.0;;;15.76;58.08
64019;BME280;66942;52.138;5.216;2023-03-22T09:34:29;100580.0;;;15.64;59.08
64019;BME280;66942;52.138;5.216;2023-03-22T09:36:06;100575.0;;;15.21;60.2
64019;BME280;66942;52.138;5.216;2023-03-22T09:37:42;100576.0;;;15.14;60.66
64019;BME280;66942;52.138;5.216;2023-03-22T09:39:18;100567.0;;;15.33;60.01
64019;BME280;66942;52.138;5.216;2023-03-22T09:42:38;100571.0;;;15.33;60.25
64019;BME280;66942;52.138;5.216;2023-03-22T09:44:22;100573.0;;;15.62;59.48
64019;BME280;66942;52.138;5.216;2023-03-22T09:46:03;100570.0;;;15.21;60.48
64019;BME280;66942;52.138;5.216;2023-03-22T09:47:46;100568.0;;;15.51;59.52
64019;BME280;66942;52.138;5.216;2023-03-22T09:51:21;100574.0;;;15.43;59.9
64019;BME280;66942;52.138;5.216;2023-03-22T09:52:58;100572.0;;;15.32;60.27
64019;BME280;66942;52.138;5.216;2023-03-22T09:54:36;100569.0;;;15.48;59.51
64019;BME280;66942;52.138;5.216;2023-03-22T09:56:18;100566.0;;;15.19;60.25
64019;BME280;66942;52.138;5.216;2023-03-22T09:59:48;100567.0;;;15.38;59.95
64019;BME280;66942;52.138;5.216;2023-03-22T10:01:30;100561.0;;;15.63;59.7
64019;BME280;66942;52.138;5.216;2023-03-22T10:03:18;100566.0;;;15.67;59.96
64019;BME280;66942;52.138;5.216;2023-03-22T10:05:07;100564.0;;;15.62;60.07
64019;BME280;66942;52.138;5.216;2023-03-22T10:06:49;100561.0;;;15.36;61.14
64019;BME280;66942;52.138;5.216;2023-03-22T10:08:35;100570.0;;;15.55;60.38
64019;BME280;66942;52.138;5.216;2023-03-22T10:12:00;100566.0;;;15.09;61.44
64019;BME280;66942;52.138;5.216;2023-03-22T10:13:49;100564.0;;;15.52;60.93
64019;BME280;66942;52.138;5.216;2023-03-22T10:15:35;100568.0;;;15.13;61.47
64019;BME280;66942;52.138;5.216;2023-03-22T10:17:15;100560.0;;;15.72;60.17
64019;BME280;66942;52.138;5.216;2023-03-22T10:20:41;100560.0;;;15.16;61.87
64019;BME280;66942;52.138;5.216;2023-03-22T10:22:23;100566.0;;;15.64;60.96
64019;BME280;66942;52.138;5.216;2023-03-22T10:24:10;100561.0;;;15.18;61.85
64019;BME280;66942;52.138;5.216;2023-03-22T10:25:51;100566.0;;;15.36;61.73
64019;BME280;66942;52.138;5.216;2023-03-22T10:27:29;100567.0;;;15.54;61.1
64019;BME280;66942;52.138;5.216;2023-03-22T10:30:53;100567.0;;;15.73;60.7
64019;BME280;66942;52.138;5.216;2023-03-22T10:32:35;100570.0;;;15.31;61.7
64019;BME280;66942;52.138;5.216;2023-03-22T10:34:19;100571.0;;;15.36;61.65
64019;BME280;66942;52.138;5.216;2023-03-22T10:35:57;100561.0;;;15.2;62.03
64019;BME280;66942;52.138;5.216;2023-03-22T10:39:25;100567.0;;;15.62;60.94
64019;BME280;66942;52.138;5.216;2023-03-22T10:41:08;100577.0;;;15.52;61.07
64019;BME280;66942;52.138;5.216;2023-03-22T10:42:50;100576.0;;;15.43;61.17
64019;BME280;66942;52.138;5.216;2023-03-22T10:44:31;100577.0;;;15.34;61.97
64019;BME280;66942;52.138;5.216;2023-03-22T10:46:13;100580.0;;;15.46;61.38
64019;BME280;66942;52.138;5.216;2023-03-22T10:49:36;100571.0;;;15.07;62.34
64019;BME280;66942;52.138;5.216;2023-03-22T10:51:21;100549.0;;;14.99;62.03
64019;BME280;66942;52.138;5.216;2023-03-22T10:53:04;100567.0;;;15.29;61.88
64019;BME280;66942;52.138;5.216;2023-03-22T10:54:42;100549.0;;;15.04;61.92
64019;BME280;66942;52.138;5.216;2023-03-22T10:58:00;100550.0;;;15.32;61.9
64019;BME280;66942;52.138;5.216;2023-03-22T10:59:47;100555.0;;;15.64;61.6
64019;BME280;66942;52.138;5.216;2023-03-22T11:01:26;100551.0;;;15.59;61.68
64019;BME280;66942;52.138;5.216;2023-03-22T11:03:05;100555.0;;;15.45;61.55
64019;BME280;66942;52.138;5.216;2023-03-22T11:06:24;100548.0;;;15.59;61.63
64019;BME280;66942;52.138;5.216;2023-03-22T11:08:02;100543.0;;;15.38;62.16
64019;BME280;66942;52.138;5.216;2023-03-22T11:09:38;100544.0;;;15.47;61.58
64019;BME280;66942;52.138;5.216;2023-03-22T11:11:18;100551.0;;;15.49;61.59
64019;BME280;66942;52.138;5.216;2023-03-22T11:14:49;100549.0;;;15.7;61.29
64019;BME280;66942;52.138;5.216;2023-03-22T11:16:27;100549.0;;;15.85;61.21
64019;BME280;66942;52.138;5.216;2023-03-22T11:18:07;100541.0;;;15.7;61.21